Time;durP1;ratioP1;P1;durP2;ratioP2;P2;SDS_P1;SDS_P2;PMS_P1;PMS_P2;Temp;Humidity;BMP_temperature;BMP_pressure;BME280_temperature;BME280_humidity;BME280_pressure;Samples;Min_cycle;Max_cycle;Signal;HPM_P1;HPM_P2
2023/03/24 00:02:18;;;;;;;15.10;6.90;;;10.40;99.90;;;;;;5022448;28;20230;-56
2023/03/24 00:04:46;;;;;;;9.37;5.83;;;10.30;99.90;;;;;;5018680;28;20203;-57
2023/03/24 00:07:13;;;;;;;8.90;6.73;;;10.30;99.90;;;;;;5017924;28;20533;-58
2023/03/24 00:09:41;;;;;;;11.00;6.97;;;10.30;99.90;;;;;;5014244;28;20931;-57
2023/03/24 00:12:08;;;;;;;15.60;7.30;;;10.30;99.90;;;;;;5015859;28;20500;-57
2023/03/24 00:14:37;;;;;;;7.70;5.90;;;10.30;99.90;;;;;;5018861;28;20873;-57
2023/03/24 00:17:04;;;;;;;8.87;5.70;;;10.30;99.90;;;;;;5017792;28;20420;-55
2023/03/24 00:19:32;;;;;;;9.70;6.40;;;10.30;99.90;;;;;;5019800;28;20970;-58
2023/03/24 00:21:59;;;;;;;13.17;6.60;;;10.30;99.90;;;;;;5021116;28;20465;-56
2023/03/24 00:24:26;;;;;;;8.73;6.53;;;10.30;99.90;;;;;;5021398;28;20467;-57
2023/03/24 00:26:51;;;;;;;9.90;7.50;;;10.30;99.90;;;;;;5021779;28;21128;-56
2023/03/24 00:29:18;;;;;;;12.53;5.93;;;10.30;99.90;;;;;;5020541;28;20558;-56
2023/03/24 00:31:44;;;;;;;9.10;5.97;;;10.30;99.90;;;;;;5024137;28;20172;-56
2023/03/24 00:34:11;;;;;;;10.97;6.00;;;10.20;99.90;;;;;;5020255;28;20977;-56
2023/03/24 00:36:37;;;;;;;8.20;5.60;;;10.20;99.90;;;;;;5020604;28;20177;-57
2023/03/24 00:39:04;;;;;;;12.97;5.50;;;10.20;99.90;;;;;;5022024;28;20419;-55
2023/03/24 00:41:30;;;;;;;9.23;5.80;;;10.10;99.90;;;;;;5019501;28;20184;-56
2023/03/24 00:43:58;;;;;;;12.00;6.00;;;10.10;99.90;;;;;;5022200;28;20446;-56
2023/03/24 00:46:28;;;;;;;7.63;5.23;;;10.10;99.90;;;;;;5017850;28;20172;-58
2023/03/24 00:49:04;;;;;;;8.30;5.67;;;10.00;99.90;;;;;;5022663;28;20458;-57
2023/03/24 00:51:38;;;;;;;7.47;5.43;;;10.00;99.90;;;;;;5019038;28;20431;-57
2023/03/24 00:54:05;;;;;;;8.80;6.00;;;9.90;99.90;;;;;;5020550;28;20958;-58
2023/03/24 00:56:32;;;;;;;10.30;6.10;;;9.90;99.90;;;;;;5019464;28;20427;-57
2023/03/24 00:59:00;;;;;;;9.77;5.90;;;9.90;99.90;;;;;;5018586;28;20464;-58
2023/03/24 01:01:28;;;;;;;10.57;5.13;;;9.90;99.90;;;;;;5018767;28;20440;-58
2023/03/24 01:03:55;;;;;;;10.30;5.57;;;9.80;99.90;;;;;;5020640;28;20541;-58
2023/03/24 01:06:22;;;;;;;9.53;5.17;;;9.80;99.90;;;;;;5021562;28;20510;-58
2023/03/24 01:08:49;;;;;;;7.40;5.40;;;9.90;99.90;;;;;;5019155;28;21044;-56
2023/03/24 01:11:15;;;;;;;6.73;5.40;;;9.80;99.90;;;;;;5020756;28;21036;-56
2023/03/24 01:13:41;;;;;;;8.93;5.40;;;9.80;99.90;;;;;;5016371;28;20537;-56
2023/03/24 01:16:08;;;;;;;7.27;5.10;;;9.80;99.90;;;;;;5021835;28;20690;-59
2023/03/24 01:18:39;;;;;;;13.73;5.50;;;9.80;99.90;;;;;;5020372;28;20955;-58
2023/03/24 01:21:06;;;;;;;6.17;5.33;;;9.80;99.90;;;;;;5016767;28;20525;-59
2023/03/24 01:23:33;;;;;;;10.87;5.70;;;9.80;99.90;;;;;;5019023;28;20442;-60
2023/03/24 01:26:03;;;;;;;7.10;5.67;;;9.80;99.90;;;;;;5019916;28;20449;-58
2023/03/24 01:28:28;;;;;;;8.53;5.87;;;9.80;99.90;;;;;;5021650;28;20502;-57
2023/03/24 01:30:54;;;;;;;7.93;5.23;;;9.80;99.90;;;;;;5026110;28;20445;-56
2023/03/24 01:33:21;;;;;;;7.53;5.00;;;9.80;99.90;;;;;;5026433;28;20176;-59
2023/03/24 01:35:47;;;;;;;9.77;5.37;;;9.70;99.90;;;;;;5027342;28;20262;-55
2023/03/24 01:38:13;;;;;;;7.40;5.13;;;9.70;99.90;;;;;;5028060;28;20513;-57
2023/03/24 01:40:42;;;;;;;8.83;4.60;;;9.70;99.90;;;;;;5025555;28;20434;-56
2023/03/24 01:43:18;;;;;;;8.07;5.60;;;9.70;99.90;;;;;;5023893;28;20411;-57
2023/03/24 01:46:06;;;;;;;8.53;4.93;;;9.70;99.90;;;;;;5022208;28;20414;-56
2023/03/24 01:48:52;;;;;;;6.50;4.90;;;9.70;99.90;;;;;;5021999;28;20462;-57
2023/03/24 01:51:20;;;;;;;9.70;5.20;;;9.70;99.90;;;;;;5022950;28;20430;-57
2023/03/24 01:54:00;;;;;;;11.10;5.67;;;9.70;99.90;;;;;;5021230;28;20446;-58
2023/03/24 01:56:30;;;;;;;6.00;5.23;;;9.60;99.90;;;;;;5024549;28;20839;-58
2023/03/24 01:58:59;;;;;;;10.47;5.23;;;9.60;99.90;;;;;;5027555;28;20460;-56
2023/03/24 02:01:29;;;;;;;12.47;5.40;;;9.60;99.90;;;;;;5019374;28;20438;-59
2023/03/24 02:03:57;;;;;;;7.17;5.10;;;9.60;99.90;;;;;;5023857;28;20449;-58
2023/03/24 02:06:24;;;;;;;7.20;5.30;;;9.60;99.90;;;;;;5025820;28;20414;-58
2023/03/24 02:08:58;;;;;;;7.53;5.77;;;9.60;99.90;;;;;;5025554;28;20596;-57
2023/03/24 02:11:27;;;;;;;9.80;5.40;;;9.60;99.90;;;;;;5020395;28;20433;-56
2023/03/24 02:13:53;;;;;;;7.87;5.20;;;9.60;99.90;;;;;;5024976;28;21143;-57
2023/03/24 02:16:37;;;;;;;9.97;5.60;;;9.60;99.90;;;;;;5023643;28;20934;-55
2023/03/24 02:19:36;;;;;;;7.53;5.60;;;9.50;99.90;;;;;;5026940;28;20402;-58
2023/03/24 02:22:35;;;;;;;7.47;5.27;;;9.50;99.90;;;;;;5021596;28;20454;-55
2023/03/24 02:25:36;;;;;;;9.90;5.50;;;9.50;99.90;;;;;;5020632;28;20450;-55
2023/03/24 02:28:22;;;;;;;7.00;5.07;;;9.50;99.90;;;;;;5022880;28;20463;-56
2023/03/24 02:30:57;;;;;;;6.50;4.70;;;9.50;99.90;;;;;;5026716;28;20461;-57
2023/03/24 02:34:00;;;;;;;10.23;5.50;;;9.50;99.90;;;;;;5026110;28;20458;-56
2023/03/24 02:36:40;;;;;;;9.03;5.63;;;9.50;99.90;;;;;;5024791;28;20434;-58
2023/03/24 02:39:24;;;;;;;10.80;5.80;;;9.50;99.90;;;;;;5028785;28;21119;-58
2023/03/24 02:41:55;;;;;;;10.40;5.87;;;9.50;99.90;;;;;;5022772;28;20521;-57
2023/03/24 02:44:40;;;;;;;9.53;5.40;;;9.50;99.90;;;;;;5021766;28;20986;-57
2023/03/24 02:47:21;;;;;;;10.77;5.67;;;9.50;99.90;;;;;;5030213;28;20951;-57
2023/03/24 02:50:20;;;;;;;6.80;5.13;;;9.50;99.90;;;;;;5031581;28;20464;-57
2023/03/24 02:52:59;;;;;;;6.23;4.63;;;9.50;99.90;;;;;;5023138;28;20936;-58
2023/03/24 02:55:37;;;;;;;7.50;5.43;;;9.50;99.90;;;;;;5017618;28;20541;-58
2023/03/24 02:58:07;;;;;;;6.87;5.20;;;9.50;99.90;;;;;;5024529;28;20441;-56
2023/03/24 03:00:49;;;;;;;8.03;5.27;;;9.50;99.90;;;;;;5024767;28;20414;-56
2023/03/24 03:03:26;;;;;;;5.87;4.30;;;9.50;99.90;;;;;;5024755;28;20422;-55
2023/03/24 03:06:01;;;;;;;8.00;5.23;;;9.60;99.90;;;;;;5028933;28;20517;-58
2023/03/24 03:08:31;;;;;;;10.73;5.80;;;9.60;99.90;;;;;;5028892;28;20496;-59
2023/03/24 03:10:58;;;;;;;9.17;5.50;;;9.70;99.90;;;;;;5028366;28;20966;-58
2023/03/24 03:13:34;;;;;;;9.20;5.10;;;9.80;99.90;;;;;;5022287;28;20427;-57
2023/03/24 03:16:06;;;;;;;10.70;5.53;;;9.90;99.90;;;;;;5023727;28;20798;-58
2023/03/24 03:18:42;;;;;;;8.77;5.10;;;9.90;99.90;;;;;;5028952;28;20458;-56
2023/03/24 03:21:13;;;;;;;8.77;5.33;;;10.00;99.90;;;;;;5026702;28;20810;-57
2023/03/24 03:23:49;;;;;;;6.17;5.13;;;10.10;99.90;;;;;;5027093;28;20951;-58
2023/03/24 03:26:18;;;;;;;5.73;4.73;;;10.10;99.90;;;;;;5022670;28;20414;-57
2023/03/24 03:28:49;;;;;;;8.70;4.73;;;10.20;99.90;;;;;;5015497;28;20455;-58
2023/03/24 03:31:22;;;;;;;7.50;4.57;;;10.20;99.90;;;;;;5027795;28;20431;-58
2023/03/24 03:33:57;;;;;;;5.37;4.27;;;10.30;99.90;;;;;;5025751;28;20538;-58
2023/03/24 03:36:32;;;;;;;7.97;4.50;;;10.30;99.90;;;;;;5024700;28;20425;-58
2023/03/24 03:39:09;;;;;;;6.80;4.80;;;10.40;99.90;;;;;;5024255;28;20457;-59
2023/03/24 03:41:37;;;;;;;7.20;4.40;;;10.40;99.90;;;;;;5028257;28;20457;-57
2023/03/24 03:44:03;;;;;;;6.40;4.33;;;10.40;99.90;;;;;;5024267;28;20546;-56
2023/03/24 03:46:28;;;;;;;5.03;4.10;;;10.50;99.90;;;;;;5028388;28;20441;-58
2023/03/24 03:48:54;;;;;;;6.60;3.87;;;10.50;99.90;;;;;;5027328;28;20290;-57
2023/03/24 03:51:20;;;;;;;6.20;4.80;;;10.50;99.90;;;;;;5027741;28;20537;-59
2023/03/24 03:53:51;;;;;;;4.57;4.10;;;10.60;99.90;;;;;;5026822;28;20218;-59
2023/03/24 03:56:24;;;;;;;5.13;4.00;;;10.60;99.90;;;;;;5024096;28;20415;-57
2023/03/24 03:58:49;;;;;;;8.10;4.63;;;10.60;99.90;;;;;;5028211;28;20927;-58
2023/03/24 04:01:18;;;;;;;7.87;4.67;;;10.60;99.90;;;;;;5026371;28;20415;-59
2023/03/24 04:04:03;;;;;;;5.90;4.70;;;10.60;99.90;;;;;;5029091;28;20204;-59
2023/03/24 04:06:52;;;;;;;7.97;5.10;;;10.60;99.90;;;;;;5027416;28;20470;-57
2023/03/24 04:10:09;;;;;;;5.17;4.67;;;10.60;99.90;;;;;;5025622;28;20505;-57
2023/03/24 04:13:02;;;;;;;10.00;4.63;;;10.70;99.90;;;;;;5011378;28;20431;-59
2023/03/24 04:16:07;;;;;;;7.40;4.80;;;10.70;99.90;;;;;;5029041;28;20474;-59
2023/03/24 04:18:44;;;;;;;9.53;6.40;;;10.70;99.90;;;;;;5021518;28;20882;-56
2023/03/24 04:21:27;;;;;;;9.20;6.23;;;10.60;99.90;;;;;;5019325;28;20544;-57
2023/03/24 04:23:58;;;;;;;8.17;5.13;;;10.60;99.90;;;;;;5025711;28;20454;-57
2023/03/24 04:26:25;;;;;;;6.40;5.00;;;10.60;99.90;;;;;;5026279;28;20489;-57
2023/03/24 04:29:13;;;;;;;5.00;4.60;;;10.60;99.90;;;;;;5026649;28;21014;-59
2023/03/24 04:31:53;;;;;;;6.10;4.40;;;10.70;99.90;;;;;;5019488;28;20496;-58
2023/03/24 04:34:33;;;;;;;5.17;4.30;;;10.70;99.90;;;;;;5024295;28;20438;-56
2023/03/24 04:37:12;;;;;;;6.20;4.40;;;10.70;99.90;;;;;;5021847;28;20426;-57
2023/03/24 04:39:42;;;;;;;7.80;4.23;;;10.60;99.90;;;;;;5026977;28;20430;-57
2023/03/24 04:42:27;;;;;;;5.63;4.77;;;10.70;99.90;;;;;;5022638;28;20445;-58
2023/03/24 04:44:56;;;;;;;6.53;5.10;;;10.70;99.90;;;;;;5028194;28;20434;-58
2023/03/24 04:47:25;;;;;;;5.53;4.80;;;10.70;99.90;;;;;;5030734;28;21118;-57
2023/03/24 04:49:50;;;;;;;7.37;4.93;;;10.70;99.90;;;;;;5025434;28;20441;-56
2023/03/24 04:52:16;;;;;;;7.37;5.23;;;10.70;99.90;;;;;;5023612;28;20423;-56
2023/03/24 04:54:41;;;;;;;6.50;4.87;;;10.70;99.90;;;;;;5024956;28;20267;-57
2023/03/24 04:57:07;;;;;;;5.73;4.70;;;10.70;99.90;;;;;;5017855;28;20202;-59
2023/03/24 04:59:33;;;;;;;6.47;4.67;;;10.70;99.90;;;;;;5025272;28;20591;-55
2023/03/24 05:02:02;;;;;;;9.40;4.90;;;10.70;99.90;;;;;;5023491;28;20187;-56
2023/03/24 05:04:29;;;;;;;6.87;4.60;;;10.80;99.90;;;;;;5019522;28;20203;-56
2023/03/24 05:06:54;;;;;;;7.90;4.37;;;10.80;99.90;;;;;;5027242;28;20495;-56
2023/03/24 05:09:23;;;;;;;6.27;4.67;;;10.80;99.90;;;;;;5023605;28;20458;-56
2023/03/24 05:11:49;;;;;;;6.37;4.63;;;10.80;99.90;;;;;;5023071;28;20202;-56
2023/03/24 05:14:15;;;;;;;18.60;4.90;;;10.80;99.90;;;;;;5022018;28;21135;-56
2023/03/24 05:16:41;;;;;;;5.57;4.40;;;10.80;99.90;;;;;;5009895;28;20525;-57
2023/03/24 05:19:07;;;;;;;7.27;5.97;;;10.90;99.90;;;;;;5016900;28;20874;-57
2023/03/24 05:21:33;;;;;;;6.67;5.00;;;11.00;99.90;;;;;;5015273;28;20651;-59
2023/03/24 05:23:59;;;;;;;6.30;4.47;;;11.00;99.90;;;;;;5024544;28;20454;-59
2023/03/24 05:26:28;;;;;;;7.60;4.63;;;11.00;99.90;;;;;;5019726;28;20534;-58
2023/03/24 05:28:54;;;;;;;6.60;4.80;;;11.00;99.90;;;;;;5020396;28;20191;-57
2023/03/24 05:31:19;;;;;;;8.70;4.87;;;11.00;99.90;;;;;;5013925;28;20515;-61
2023/03/24 05:33:45;;;;;;;7.27;5.30;;;11.00;99.90;;;;;;5017208;28;20188;-59
2023/03/24 05:36:11;;;;;;;7.83;5.30;;;11.00;99.90;;;;;;5012278;28;21317;-60
2023/03/24 05:38:36;;;;;;;6.83;4.87;;;11.00;99.90;;;;;;5020459;28;20172;-64
2023/03/24 05:41:02;;;;;;;6.90;5.40;;;11.00;99.90;;;;;;5019015;28;20171;-59
2023/03/24 05:43:28;;;;;;;9.63;4.93;;;11.00;99.90;;;;;;5020916;28;20255;-58
2023/03/24 05:45:55;;;;;;;6.53;4.73;;;10.90;99.90;;;;;;5019716;28;20442;-58
2023/03/24 05:48:20;;;;;;;9.50;4.83;;;11.00;99.90;;;;;;5021908;28;20252;-58
2023/03/24 05:50:46;;;;;;;6.40;4.70;;;10.90;99.90;;;;;;5018793;28;20768;-60
2023/03/24 05:53:12;;;;;;;6.83;4.30;;;10.90;99.90;;;;;;5018571;28;20696;-58
2023/03/24 05:55:39;;;;;;;6.83;4.33;;;10.90;99.90;;;;;;5018466;28;20195;-60
2023/03/24 05:58:05;;;;;;;7.27;5.07;;;10.90;99.90;;;;;;5023771;28;20664;-58
2023/03/24 06:00:32;;;;;;;7.03;4.13;;;10.90;99.90;;;;;;5015059;28;20449;-59
2023/03/24 06:02:58;;;;;;;5.80;3.97;;;10.90;99.90;;;;;;5015860;28;22081;-57
2023/03/24 06:05:25;;;;;;;7.30;5.00;;;10.90;99.90;;;;;;5017263;28;20454;-57
2023/03/24 06:07:57;;;;;;;7.60;4.40;;;10.90;99.90;;;;;;5017929;28;20823;-55
2023/03/24 06:10:26;;;;;;;8.80;5.30;;;10.90;99.90;;;;;;5018804;28;20477;-54
2023/03/24 06:12:54;;;;;;;7.30;5.33;;;10.90;99.90;;;;;;5014012;28;20427;-56
2023/03/24 06:15:21;;;;;;;9.57;5.63;;;10.90;99.90;;;;;;5021485;28;20503;-56
2023/03/24 06:17:47;;;;;;;4.67;4.17;;;10.90;99.90;;;;;;5020641;28;20553;-58
2023/03/24 06:20:14;;;;;;;7.50;5.27;;;10.90;99.90;;;;;;5027074;28;20509;-62
2023/03/24 06:22:44;;;;;;;7.80;4.40;;;10.90;99.90;;;;;;5025800;28;20207;-58
2023/03/24 06:25:11;;;;;;;6.73;4.70;;;10.90;99.90;;;;;;5025482;28;20458;-58
2023/03/24 06:27:41;;;;;;;8.10;5.40;;;10.90;99.90;;;;;;5026300;28;20477;-58
2023/03/24 06:30:07;;;;;;;5.87;4.77;;;10.90;99.90;;;;;;5023288;28;20462;-58
2023/03/24 06:32:33;;;;;;;7.03;4.30;;;11.00;99.90;;;;;;5027309;28;20509;-60
2023/03/24 06:34:59;;;;;;;7.97;4.63;;;11.00;99.90;;;;;;5023716;28;20920;-59
2023/03/24 06:37:26;;;;;;;5.07;4.50;;;11.00;99.90;;;;;;5028281;28;20435;-60
2023/03/24 06:39:52;;;;;;;8.13;4.10;;;11.00;99.90;;;;;;5030199;28;20187;-60
2023/03/24 06:42:17;;;;;;;6.43;4.40;;;11.10;99.90;;;;;;5025358;28;20886;-60
2023/03/24 06:44:43;;;;;;;6.13;5.47;;;11.10;99.90;;;;;;5028207;28;20208;-59
2023/03/24 06:47:09;;;;;;;7.10;4.53;;;11.20;99.90;;;;;;5026121;28;20262;-57
2023/03/24 06:49:36;;;;;;;5.13;4.33;;;11.20;99.90;;;;;;5028164;28;20211;-57
2023/03/24 06:52:03;;;;;;;11.00;4.13;;;11.20;99.90;;;;;;5027501;28;20187;-59
2023/03/24 06:54:28;;;;;;;33.07;6.00;;;11.30;99.90;;;;;;5031020;28;20441;-58
2023/03/24 06:56:55;;;;;;;23.07;5.77;;;11.30;99.90;;;;;;5026371;28;20434;-60
2023/03/24 06:59:22;;;;;;;16.53;5.33;;;11.30;99.90;;;;;;5018163;28;20230;-57
2023/03/24 07:01:50;;;;;;;16.63;5.10;;;11.40;99.90;;;;;;5021674;28;20501;-59
2023/03/24 07:04:16;;;;;;;6.93;4.37;;;11.40;99.90;;;;;;5012719;28;20565;-57
2023/03/24 07:06:42;;;;;;;6.27;5.00;;;11.50;99.90;;;;;;5024025;28;21193;-58
2023/03/24 07:09:08;;;;;;;24.00;4.60;;;11.50;99.90;;;;;;5029118;28;20203;-58
2023/03/24 07:11:33;;;;;;;12.13;4.57;;;11.50;99.90;;;;;;5027893;28;20191;-58
2023/03/24 07:13:59;;;;;;;6.80;3.93;;;11.60;99.90;;;;;;5023833;28;20454;-58
2023/03/24 07:16:25;;;;;;;11.70;4.20;;;11.60;99.90;;;;;;5023398;28;20176;-60
2023/03/24 07:18:50;;;;;;;8.67;4.67;;;11.70;99.90;;;;;;5022271;28;20267;-59
2023/03/24 07:21:17;;;;;;;10.20;4.77;;;11.70;99.90;;;;;;5022138;28;20645;-58
2023/03/24 07:23:43;;;;;;;4.13;3.60;;;11.80;99.90;;;;;;5023173;28;20692;-58
2023/03/24 07:26:08;;;;;;;4.80;3.70;;;11.80;99.90;;;;;;5022539;28;20475;-58
2023/03/24 07:28:34;;;;;;;10.30;3.80;;;11.80;99.90;;;;;;5024854;28;21162;-60
2023/03/24 07:31:03;;;;;;;5.07;4.10;;;11.90;99.90;;;;;;5017920;28;20178;-59
2023/03/24 07:33:30;;;;;;;5.33;3.70;;;11.90;99.90;;;;;;5023813;28;20203;-58
2023/03/24 07:35:56;;;;;;;5.50;3.50;;;11.90;99.90;;;;;;5025966;28;20458;-57
2023/03/24 07:38:23;;;;;;;12.23;4.20;;;11.90;99.90;;;;;;5026620;28;20504;-58
2023/03/24 07:40:49;;;;;;;7.70;4.03;;;11.90;99.90;;;;;;5026735;28;20462;-57
2023/03/24 07:43:14;;;;;;;5.03;3.60;;;11.90;99.90;;;;;;5026924;28;20457;-58
2023/03/24 07:45:40;;;;;;;6.43;3.83;;;11.90;99.90;;;;;;5024999;28;20565;-58
2023/03/24 07:48:06;;;;;;;7.30;4.20;;;11.90;99.90;;;;;;5020160;28;20780;-59
2023/03/24 07:50:31;;;;;;;7.60;4.00;;;11.90;99.90;;;;;;5025261;28;20226;-57
2023/03/24 07:52:57;;;;;;;5.47;3.77;;;11.90;99.90;;;;;;5022676;28;20660;-60
2023/03/24 07:55:23;;;;;;;3.87;3.30;;;11.90;99.90;;;;;;5021198;28;20196;-58
2023/03/24 07:57:49;;;;;;;4.67;3.33;;;11.90;99.90;;;;;;5022357;28;20175;-57
2023/03/24 08:00:19;;;;;;;5.23;3.50;;;11.90;99.90;;;;;;5028178;28;20813;-60
2023/03/24 08:02:47;;;;;;;5.43;4.10;;;11.90;99.90;;;;;;5021995;28;20484;-58
2023/03/24 08:05:13;;;;;;;5.73;3.40;;;11.90;99.90;;;;;;5023275;28;20877;-59
2023/03/24 08:07:52;;;;;;;12.20;3.30;;;11.90;99.90;;;;;;5023101;28;20488;-58
2023/03/24 08:10:19;;;;;;;6.33;3.10;;;12.00;99.90;;;;;;5023565;28;20794;-57
2023/03/24 08:12:46;;;;;;;2.10;1.93;;;12.00;99.90;;;;;;5023944;28;20431;-59
2023/03/24 08:15:12;;;;;;;2.80;2.33;;;12.00;99.90;;;;;;5023677;28;20442;-57
2023/03/24 08:17:38;;;;;;;3.70;2.40;;;12.00;99.90;;;;;;5023860;28;20467;-59
2023/03/24 08:20:10;;;;;;;3.03;2.73;;;12.00;99.90;;;;;;5022262;28;20426;-57
2023/03/24 08:22:38;;;;;;;3.63;2.33;;;12.00;99.30;;;;;;5023987;28;20959;-59
2023/03/24 08:25:05;;;;;;;3.30;2.50;;;12.00;99.00;;;;;;5024139;28;20457;-59
2023/03/24 08:27:31;;;;;;;4.17;2.80;;;12.00;99.90;;;;;;5021502;28;20485;-60
2023/03/24 08:29:56;;;;;;;2.93;2.40;;;11.90;99.90;;;;;;5019683;28;20462;-59
2023/03/24 08:32:22;;;;;;;3.03;2.83;;;11.90;99.90;;;;;;5022034;28;20203;-60
2023/03/24 08:34:48;;;;;;;4.10;3.00;;;11.80;99.90;;;;;;5023361;28;20199;-60
2023/03/24 08:37:13;;;;;;;11.13;2.77;;;11.80;99.90;;;;;;5025560;28;20238;-57
2023/03/24 08:39:39;;;;;;;3.80;2.13;;;11.80;99.90;;;;;;5025355;28;20187;-59
2023/03/24 08:42:04;;;;;;;3.40;2.50;;;11.80;99.90;;;;;;5019394;28;20190;-57
2023/03/24 08:44:30;;;;;;;2.60;2.30;;;11.70;99.90;;;;;;5014384;28;20203;-60
2023/03/24 08:46:56;;;;;;;4.17;2.60;;;11.70;99.90;;;;;;5022413;28;20828;-60
2023/03/24 08:49:21;;;;;;;3.37;2.30;;;11.70;99.90;;;;;;5014945;28;20196;-63
2023/03/24 08:51:47;;;;;;;5.63;2.30;;;11.70;99.90;;;;;;5020651;28;20172;-61
2023/03/24 08:54:13;;;;;;;3.47;3.03;;;11.60;99.90;;;;;;5016289;28;20202;-65
2023/03/24 08:56:39;;;;;;;3.30;3.00;;;11.60;99.90;;;;;;5016048;28;20242;-59
2023/03/24 08:59:05;;;;;;;5.40;3.07;;;11.50;99.90;;;;;;5013140;28;20267;-58
2023/03/24 09:01:32;;;;;;;7.40;3.43;;;11.50;99.90;;;;;;5018693;28;20438;-62
2023/03/24 09:03:58;;;;;;;10.73;3.80;;;11.50;99.90;;;;;;5020459;28;20486;-59
2023/03/24 09:06:26;;;;;;;4.10;3.40;;;11.60;99.90;;;;;;5017909;28;20469;-59
2023/03/24 09:08:52;;;;;;;6.43;3.80;;;11.60;99.90;;;;;;5018019;28;20231;-60
2023/03/24 09:11:20;;;;;;;4.03;3.23;;;11.60;99.90;;;;;;5020592;28;20862;-60
2023/03/24 09:13:46;;;;;;;4.53;3.20;;;11.60;99.90;;;;;;5022384;28;20450;-59
2023/03/24 09:16:12;;;;;;;5.03;3.50;;;11.60;99.90;;;;;;5017240;28;20458;-60
2023/03/24 09:18:38;;;;;;;4.77;4.27;;;11.60;99.90;;;;;;5019682;28;20462;-59
2023/03/24 09:21:05;;;;;;;3.17;2.83;;;11.60;99.90;;;;;;5019039;28;20183;-55
2023/03/24 09:23:30;;;;;;;4.77;3.10;;;11.60;99.90;;;;;;5014861;28;20195;-58
2023/03/24 09:25:57;;;;;;;4.10;3.30;;;11.70;99.90;;;;;;5016690;28;20529;-58
2023/03/24 09:28:23;;;;;;;2.90;2.60;;;11.70;99.90;;;;;;5021280;28;20196;-59
2023/03/24 09:30:48;;;;;;;3.23;2.90;;;11.70;99.90;;;;;;5018151;28;20434;-59
2023/03/24 09:33:14;;;;;;;4.90;3.00;;;11.70;99.90;;;;;;5018895;28;20196;-60
2023/03/24 09:35:41;;;;;;;4.90;3.00;;;11.80;99.90;;;;;;5020998;28;20195;-61
2023/03/24 09:38:06;;;;;;;3.20;2.43;;;11.80;99.90;;;;;;5028034;28;20426;-59
2023/03/24 09:40:36;;;;;;;4.90;3.30;;;11.90;99.90;;;;;;5021892;28;20818;-60
2023/03/24 09:43:19;;;;;;;3.63;2.80;;;11.90;99.90;;;;;;5021491;28;20209;-59
2023/03/24 09:45:57;;;;;;;4.63;2.83;;;12.00;99.90;;;;;;5023909;28;20442;-59
2023/03/24 09:48:25;;;;;;;4.27;2.93;;;12.10;99.90;;;;;;5020276;28;20537;-58
2023/03/24 09:50:59;;;;;;;3.80;2.90;;;12.10;99.90;;;;;;5019453;28;20450;-58
2023/03/24 09:54:04;;;;;;;4.20;2.97;;;12.10;99.90;;;;;;5023179;28;20422;-59
2023/03/24 09:56:32;;;;;;;2.80;2.30;;;12.20;99.90;;;;;;5023986;28;20430;-58
2023/03/24 09:59:05;;;;;;;2.50;2.30;;;12.20;99.90;;;;;;5020112;28;20438;-51
2023/03/24 10:01:30;;;;;;;3.63;3.20;;;12.20;99.90;;;;;;5023678;28;20441;-58
2023/03/24 10:03:58;;;;;;;2.60;2.40;;;12.20;99.90;;;;;;5018920;28;20459;-59
2023/03/24 10:06:38;;;;;;;4.10;2.40;;;12.20;99.90;;;;;;5021933;28;20184;-60
2023/03/24 10:09:13;;;;;;;2.47;2.27;;;12.10;99.90;;;;;;5021310;28;20490;-59
2023/03/24 10:11:41;;;;;;;3.63;2.70;;;12.10;99.90;;;;;;5026222;28;20552;-58
2023/03/24 10:14:40;;;;;;;2.80;2.50;;;12.10;99.90;;;;;;5024026;28;21122;-59
2023/03/24 10:17:12;;;;;;;4.57;2.40;;;12.10;99.90;;;;;;5025445;28;20418;-59
2023/03/24 10:19:46;;;;;;;4.00;3.00;;;12.10;99.90;;;;;;5029346;28;20419;-62
2023/03/24 10:22:45;;;;;;;11.93;2.50;;;12.20;99.90;;;;;;5017012;28;20473;-57
2023/03/24 10:25:18;;;;;;;3.23;2.10;;;12.20;99.90;;;;;;5016692;28;20462;-59
2023/03/24 10:27:46;;;;;;;1.70;1.60;;;12.20;99.90;;;;;;5023049;28;20560;-61
2023/03/24 10:30:22;;;;;;;2.63;2.00;;;12.20;99.90;;;;;;5016590;28;20751;-58
2023/03/24 10:32:48;;;;;;;4.50;1.87;;;12.20;99.90;;;;;;5018251;28;20450;-58
2023/03/24 10:35:40;;;;;;;2.67;1.90;;;12.20;99.90;;;;;;5027006;28;20450;-58
2023/03/24 10:38:16;;;;;;;2.00;1.90;;;12.20;98.00;;;;;;5025925;28;20196;-57
2023/03/24 10:40:42;;;;;;;2.50;1.50;;;12.10;98.20;;;;;;5023624;28;20473;-58
2023/03/24 10:43:08;;;;;;;2.10;1.90;;;12.20;99.80;;;;;;5026416;28;20686;-59
2023/03/24 10:45:36;;;;;;;3.63;2.00;;;12.20;98.50;;;;;;5027342;28;20469;-57
2023/03/24 10:48:02;;;;;;;2.07;1.87;;;12.10;98.50;;;;;;5021263;28;20192;-58
2023/03/24 10:50:31;;;;;;;2.10;1.90;;;12.10;97.80;;;;;;5016410;28;20542;-58
2023/03/24 10:52:57;;;;;;;4.40;2.70;;;12.10;99.80;;;;;;5029239;28;21169;-59
2023/03/24 10:55:35;;;;;;;2.43;2.07;;;12.10;99.90;;;;;;5018130;28;20449;-56
2023/03/24 10:58:00;;;;;;;2.40;2.20;;;12.00;99.30;;;;;;5019404;28;20197;-56
2023/03/24 11:00:29;;;;;;;2.60;1.77;;;12.00;99.90;;;;;;5020362;28;20469;-56
2023/03/24 11:03:00;;;;;;;1.97;1.53;;;12.00;99.90;;;;;;5019980;28;20258;-57
2023/03/24 11:05:32;;;;;;;2.50;1.73;;;11.90;99.90;;;;;;5016617;28;20481;-58
2023/03/24 11:08:11;;;;;;;6.90;2.13;;;11.90;99.90;;;;;;5024569;28;20853;-57
2023/03/24 11:10:37;;;;;;;5.10;2.67;;;11.80;99.90;;;;;;5025731;28;20429;-58
2023/03/24 11:13:06;;;;;;;2.40;1.83;;;11.80;99.90;;;;;;5031092;28;20439;-57
2023/03/24 11:15:36;;;;;;;2.63;1.80;;;11.70;99.90;;;;;;5024021;28;20458;-61
2023/03/24 11:18:10;;;;;;;2.00;1.77;;;11.60;99.90;;;;;;5029192;28;20434;-56
2023/03/24 11:20:38;;;;;;;2.70;1.80;;;11.60;99.90;;;;;;5030169;28;20497;-58
2023/03/24 11:23:06;;;;;;;2.10;1.80;;;11.50;99.90;;;;;;5029615;28;20454;-59
2023/03/24 11:25:35;;;;;;;2.93;2.60;;;11.50;99.90;;;;;;5027202;28;20462;-58
2023/03/24 11:28:07;;;;;;;4.30;2.67;;;11.40;99.90;;;;;;5022789;28;20508;-58
2023/03/24 11:30:44;;;;;;;7.13;2.67;;;11.40;99.90;;;;;;5022861;28;20438;-60
2023/03/24 11:33:33;;;;;;;4.77;2.03;;;11.30;99.90;;;;;;5020745;28;20946;-59
2023/03/24 11:36:00;;;;;;;2.13;1.73;;;11.20;99.90;;;;;;5020843;28;20446;-59
2023/03/24 11:38:31;;;;;;;7.23;1.80;;;11.20;99.90;;;;;;5030720;28;21148;-59
2023/03/24 11:41:04;;;;;;;5.60;1.73;;;11.20;99.90;;;;;;5022882;28;20878;-58
2023/03/24 11:43:30;;;;;;;3.33;1.97;;;11.20;99.90;;;;;;5024971;28;20438;-58
2023/03/24 11:46:19;;;;;;;2.40;1.67;;;11.20;99.90;;;;;;5028877;28;20422;-59
2023/03/24 11:48:54;;;;;;;2.47;2.27;;;11.30;99.90;;;;;;5026876;28;20546;-57
2023/03/24 11:51:31;;;;;;;2.40;2.00;;;11.30;99.90;;;;;;5020927;28;20939;-58
2023/03/24 11:53:59;;;;;;;4.30;3.10;;;11.30;99.90;;;;;;5024647;28;20544;-57
2023/03/24 11:56:39;;;;;;;3.40;2.23;;;11.40;99.90;;;;;;5025561;28;20435;-60
2023/03/24 11:59:36;;;;;;;2.93;2.20;;;11.40;99.90;;;;;;5022557;28;20417;-57
2023/03/24 12:02:15;;;;;;;7.73;2.30;;;11.40;99.90;;;;;;5023285;28;20434;-58
2023/03/24 12:04:54;;;;;;;7.57;2.37;;;11.40;99.90;;;;;;5023385;28;20462;-59
2023/03/24 12:08:10;;;;;;;10.50;2.20;;;11.40;99.90;;;;;;5026213;28;20663;-58
2023/03/24 12:11:01;;;;;;;4.27;1.97;;;11.30;99.90;;;;;;5036015;28;20434;-59
2023/03/24 12:13:37;;;;;;;3.20;1.77;;;11.30;99.90;;;;;;5019716;28;20435;-62
2023/03/24 12:16:17;;;;;;;2.03;1.10;;;11.20;99.90;;;;;;5020117;28;20426;-59
2023/03/24 12:19:00;;;;;;;2.67;1.37;;;11.20;99.90;;;;;;5026845;28;20894;-58
2023/03/24 12:21:32;;;;;;;2.87;1.57;;;11.10;99.90;;;;;;5028869;28;21037;-59
2023/03/24 12:24:29;;;;;;;1.47;1.37;;;11.10;99.90;;;;;;5020709;28;20457;-60
2023/03/24 12:26:58;;;;;;;1.63;1.53;;;11.10;99.90;;;;;;5016696;28;20477;-57
2023/03/24 12:29:49;;;;;;;2.23;1.30;;;11.10;99.90;;;;;;5017439;28;20453;-58
2023/03/24 12:32:28;;;;;;;2.90;1.50;;;11.10;99.90;;;;;;5021222;28;20427;-57
2023/03/24 12:35:16;;;;;;;4.10;1.20;;;11.10;99.90;;;;;;5018915;28;20566;-59
2023/03/24 12:38:00;;;;;;;2.67;1.67;;;11.00;99.90;;;;;;5016852;28;20434;-53
2023/03/24 12:40:52;;;;;;;5.40;1.57;;;11.10;99.90;;;;;;5019000;28;20959;-59
2023/03/24 12:43:59;;;;;;;1.43;1.30;;;11.10;99.90;;;;;;5008922;28;20424;-54
2023/03/24 12:46:38;;;;;;;4.73;1.40;;;11.20;99.90;;;;;;5016797;28;20433;-55
2023/03/24 12:49:22;;;;;;;1.30;1.20;;;11.30;99.90;;;;;;5015500;28;20462;-55
2023/03/24 12:52:06;;;;;;;1.00;0.90;;;11.30;99.90;;;;;;5018446;28;20427;-59
2023/03/24 12:54:54;;;;;;;1.30;1.10;;;11.40;99.90;;;;;;5015533;28;20579;-58
2023/03/24 12:57:26;;;;;;;2.00;1.40;;;11.40;99.90;;;;;;5021792;28;20433;-53
2023/03/24 13:00:05;;;;;;;1.40;1.30;;;11.30;99.90;;;;;;5020725;28;20439;-54
2023/03/24 13:02:50;;;;;;;1.83;1.10;;;11.40;99.90;;;;;;5015452;28;20977;-58
2023/03/24 13:05:23;;;;;;;2.53;1.10;;;11.40;99.90;;;;;;5015457;28;20509;-58
2023/03/24 13:07:53;;;;;;;1.10;0.93;;;11.40;99.90;;;;;;5020011;28;20965;-63
2023/03/24 13:10:26;;;;;;;1.63;1.17;;;11.40;99.90;;;;;;5017793;28;20431;-59
2023/03/24 13:13:03;;;;;;;1.20;1.10;;;11.50;99.90;;;;;;5017477;28;20438;-58